createdAt,value
2018-12-11T00:00:31.889Z,1.30
2018-12-11T00:03:05.655Z,1.30
2018-12-11T00:05:39.453Z,1.30
2018-12-11T00:10:51.939Z,1.30
2018-12-11T00:13:25.763Z,1.30
2018-12-11T00:18:33.588Z,1.30
2018-12-11T00:21:09.211Z,1.30
2018-12-11T00:23:43.362Z,1.30
2018-12-11T00:26:17.273Z,1.30
2018-12-11T00:28:55.731Z,1.30
2018-12-11T00:31:30.115Z,1.30
2018-12-11T00:34:07.986Z,1.30
2018-12-11T00:36:41.894Z,1.30
2018-12-11T00:39:15.686Z,1.30
2018-12-11T00:44:26.419Z,1.30
2018-12-11T00:46:54.667Z,1.30
2018-12-11T00:49:29.254Z,1.30
2018-12-11T00:52:00.821Z,1.40
2018-12-11T00:54:35.254Z,1.40
2018-12-11T00:57:13.286Z,1.40
2018-12-11T00:59:51.229Z,1.40
2018-12-11T01:02:25.033Z,1.30
2018-12-11T01:05:01.576Z,1.30
2018-12-11T01:07:39.567Z,1.40
2018-12-11T01:10:13.718Z,1.40
2018-12-11T01:12:49.661Z,1.40
2018-12-11T01:18:02.241Z,1.50
2018-12-11T01:20:43.233Z,1.50
2018-12-11T01:23:15.387Z,1.40
2018-12-11T01:25:47.179Z,1.50
2018-12-11T01:28:19.170Z,1.50
2018-12-11T01:33:26.021Z,1.40
2018-12-11T01:36:00.735Z,1.40
2018-12-11T01:43:43.747Z,1.50
2018-12-11T01:46:17.654Z,1.40
2018-12-11T01:51:23.853Z,1.40
2018-12-11T02:02:26.851Z,1.40
2018-12-11T02:07:27.963Z,1.50
2018-12-11T02:10:02.615Z,1.40
2018-12-11T02:12:44.096Z,1.50
2018-12-11T02:15:18.710Z,1.50
2018-12-11T02:17:52.556Z,1.50
2018-12-11T02:23:24.107Z,1.40
2018-12-11T02:25:55.530Z,1.40
2018-12-11T02:31:14.087Z,1.40
2018-12-11T02:33:45.738Z,1.40
2018-12-11T02:38:55.431Z,1.40
2018-12-11T02:41:31.187Z,1.40
2018-12-11T02:44:05.298Z,1.40
2018-12-11T02:49:13.844Z,1.30
2018-12-11T02:51:51.727Z,1.40
2018-12-11T02:54:25.823Z,1.30
2018-12-11T02:56:57.382Z,1.30
2018-12-11T02:59:29.382Z,1.40
2018-12-11T03:02:04.087Z,1.40
2018-12-11T03:04:38.756Z,1.40
2018-12-11T03:07:10.207Z,1.40
2018-12-11T03:12:13.119Z,1.40
2018-12-11T03:14:47.298Z,1.40
2018-12-11T03:19:59.564Z,1.50
2018-12-11T03:22:33.338Z,1.40
2018-12-11T03:25:07.237Z,1.50
2018-12-11T03:27:44.935Z,1.50
2018-12-11T03:30:18.625Z,1.50
2018-12-11T03:32:53.217Z,1.50
2018-12-11T03:37:59.112Z,1.40
2018-12-11T03:40:32.991Z,1.40
2018-12-11T03:43:10.968Z,1.40
2018-12-11T03:45:48.926Z,1.40
2018-12-11T03:48:23.022Z,1.30
2018-12-11T03:50:57.675Z,1.30
2018-12-11T03:53:31.670Z,1.30
2018-12-11T03:56:05.419Z,1.20
2018-12-11T03:58:39.274Z,1.30
2018-12-11T04:01:13.163Z,1.30
2018-12-11T04:06:19.195Z,1.20
2018-12-11T04:08:53.037Z,1.20
2018-12-11T04:11:26.850Z,1.30
2018-12-11T04:14:00.789Z,1.30
2018-12-11T04:16:34.562Z,1.30
2018-12-11T04:19:08.408Z,1.30
2018-12-11T04:21:42.272Z,1.30
2018-12-11T04:26:47.958Z,1.30
2018-12-11T04:29:21.747Z,1.30
2018-12-11T04:31:59.562Z,1.30
2018-12-11T04:34:33.668Z,1.30
2018-12-11T04:39:48.005Z,1.30
2018-12-11T04:42:22.015Z,1.30
2018-12-11T04:44:55.830Z,1.30
2018-12-11T04:47:29.623Z,1.40
2018-12-11T04:50:03.675Z,1.40
2018-12-11T04:52:38.657Z,1.40
2018-12-11T05:00:15.728Z,1.40
2018-12-11T05:05:23.052Z,1.40
2018-12-11T05:08:02.750Z,1.40
2018-12-11T05:10:36.854Z,1.40
2018-12-11T05:15:47.578Z,1.40
2018-12-11T05:18:23.626Z,1.40
2018-12-11T05:20:57.669Z,1.40
2018-12-11T05:23:35.417Z,1.40
2018-12-11T05:26:13.193Z,1.40
2018-12-11T05:31:22.737Z,1.40
2018-12-11T05:34:00.784Z,1.50
2018-12-11T05:36:34.509Z,1.40
2018-12-11T05:39:08.504Z,1.50
2018-12-11T05:41:42.483Z,1.50
2018-12-11T05:44:20.229Z,1.50
2018-12-11T05:46:54.107Z,1.50
2018-12-11T05:49:27.839Z,1.50
2018-12-11T05:52:01.669Z,1.50
2018-12-11T05:54:39.511Z,1.50
2018-12-11T05:57:13.403Z,1.50
2018-12-11T05:59:47.194Z,1.50
2018-12-11T06:04:57.140Z,1.60
2018-12-11T06:07:31.084Z,1.60
2018-12-11T06:10:08.979Z,1.60
2018-12-11T06:12:42.815Z,1.60
2018-12-11T06:15:17.473Z,1.70
2018-12-11T06:17:51.469Z,1.60
2018-12-11T06:20:25.391Z,1.60
2018-12-11T06:22:59.224Z,1.60
2018-12-11T06:25:33.004Z,1.60
2018-12-11T06:28:09.069Z,1.60
2018-12-11T06:30:45.364Z,1.60
2018-12-11T06:33:20.449Z,1.60
2018-12-11T06:35:55.737Z,1.60
2018-12-11T06:38:31.898Z,1.60
2018-12-11T06:41:09.761Z,1.60
2018-12-11T06:43:45.387Z,1.60
2018-12-11T06:46:19.311Z,1.60
2018-12-11T06:48:54.153Z,1.60
2018-12-11T06:51:31.958Z,1.60
2018-12-11T06:54:05.532Z,1.60
2018-12-11T06:59:15.251Z,1.60
2018-12-11T07:01:51.177Z,1.60
2018-12-11T07:04:28.979Z,1.60
2018-12-11T07:09:36.751Z,1.50
2018-12-11T07:12:10.500Z,1.50
2018-12-11T07:14:44.900Z,1.50
2018-12-11T07:17:16.799Z,1.50
2018-12-11T07:19:54.355Z,1.50
2018-12-11T07:22:32.546Z,1.50
2018-12-11T07:25:10.228Z,1.50
2018-12-11T07:27:44.262Z,1.50
2018-12-11T07:30:17.947Z,1.60
2018-12-11T07:32:51.787Z,1.50
2018-12-11T07:35:25.604Z,1.50
2018-12-11T07:37:59.800Z,1.50
2018-12-11T07:40:36.283Z,1.60
2018-12-11T07:43:10.120Z,1.60
2018-12-11T07:45:48.160Z,1.60
2018-12-11T07:48:21.900Z,1.60
2018-12-11T07:50:55.942Z,1.60
2018-12-11T07:53:29.734Z,1.60
2018-12-11T07:58:36.380Z,1.60
2018-12-11T08:01:10.171Z,1.70
2018-12-11T08:03:58.496Z,1.70
2018-12-11T08:06:30.092Z,1.70
2018-12-11T08:20:02.050Z,1.80
2018-12-11T08:25:41.824Z,1.80
2018-12-11T08:28:10.052Z,1.80
2018-12-11T08:30:43.865Z,1.80
2018-12-11T08:33:11.987Z,1.80
2018-12-11T08:38:42.485Z,1.90
2018-12-11T08:41:19.145Z,1.90
2018-12-11T08:43:47.375Z,1.90
2018-12-11T08:46:16.359Z,1.90
2018-12-11T08:48:44.511Z,1.90
2018-12-11T08:54:09.219Z,1.90
2018-12-11T08:59:15.619Z,1.90
2018-12-11T09:01:43.774Z,2.00
2018-12-11T09:04:12.342Z,2.00
2018-12-11T09:09:38.203Z,2.00
2018-12-11T09:12:13.803Z,2.10
2018-12-11T09:14:42.013Z,2.10
2018-12-11T09:17:20.526Z,2.10
2018-12-11T09:19:51.660Z,2.20
2018-12-11T09:22:23.340Z,2.20
2018-12-11T09:24:55.172Z,2.20
2018-12-11T09:27:30.428Z,2.20
2018-12-11T09:30:08.684Z,2.20
2018-12-11T09:35:11.860Z,2.20
2018-12-11T09:42:52.079Z,2.20
2018-12-11T09:45:29.945Z,2.30
2018-12-11T09:48:03.964Z,2.30
2018-12-11T09:50:38.020Z,2.30
2018-12-11T09:53:15.771Z,2.30
2018-12-11T09:55:51.646Z,2.30
2018-12-11T09:58:27.672Z,2.30
2018-12-11T10:01:07.883Z,2.30
2018-12-11T10:03:48.361Z,2.30
2018-12-11T10:06:22.984Z,2.30
2018-12-11T10:11:35.766Z,2.30
2018-12-11T10:14:10.186Z,2.40
2018-12-11T10:16:46.649Z,2.40
2018-12-11T10:19:20.671Z,2.40
2018-12-11T10:21:55.333Z,2.40
2018-12-11T10:24:29.443Z,2.40
2018-12-11T10:27:07.173Z,2.40
2018-12-11T10:29:42.021Z,2.50
2018-12-11T10:32:17.464Z,2.40
2018-12-11T10:34:52.445Z,2.50
2018-12-11T10:39:59.127Z,2.50
2018-12-11T10:42:36.977Z,2.50
2018-12-11T10:45:10.839Z,2.50
2018-12-11T10:47:49.797Z,2.50
2018-12-11T10:50:27.703Z,2.50
2018-12-11T10:52:59.849Z,2.60
2018-12-11T10:55:32.023Z,2.60
2018-12-11T10:58:18.831Z,2.60
2018-12-11T11:00:58.266Z,2.60
2018-12-11T11:03:33.590Z,2.60
2018-12-11T11:06:08.846Z,2.60
2018-12-11T11:08:43.416Z,2.60
2018-12-11T11:11:17.498Z,2.70
2018-12-11T11:13:55.391Z,2.70
2018-12-11T11:16:29.942Z,2.60
2018-12-11T11:19:04.252Z,2.70
2018-12-11T11:21:42.133Z,2.70
2018-12-11T11:24:16.037Z,2.70
2018-12-11T11:26:50.427Z,2.70
2018-12-11T11:32:09.376Z,2.80
2018-12-11T11:34:43.686Z,2.80
2018-12-11T11:37:18.561Z,2.80
2018-12-11T11:42:24.223Z,2.90
2018-12-11T11:47:34.449Z,3.00
2018-12-11T11:50:11.447Z,3.00
2018-12-11T11:52:45.303Z,3.00
2018-12-11T11:55:19.125Z,3.00
2018-12-11T11:57:54.860Z,2.90
2018-12-11T12:00:28.811Z,3.00
2018-12-11T12:03:06.467Z,3.00
2018-12-11T12:05:40.379Z,3.10
2018-12-11T12:08:19.040Z,3.10
2018-12-11T12:10:55.449Z,3.10
2018-12-11T12:13:35.720Z,3.10
2018-12-11T12:16:10.048Z,3.00
2018-12-11T12:18:44.612Z,3.10
2018-12-11T12:21:18.734Z,3.10
2018-12-11T12:26:24.679Z,3.00
2018-12-11T12:29:00.456Z,3.00
2018-12-11T12:31:34.583Z,3.00
2018-12-11T12:34:08.360Z,2.90
2018-12-11T12:36:42.179Z,2.90
2018-12-11T12:39:16.046Z,2.90
2018-12-11T12:41:49.880Z,2.80
2018-12-11T12:44:23.630Z,2.80
2018-12-11T12:46:57.450Z,2.80
2018-12-11T12:49:31.118Z,2.70
2018-12-11T12:52:05.277Z,2.70
2018-12-11T12:54:39.812Z,2.60
2018-12-11T12:57:13.782Z,2.60
2018-12-11T12:59:49.536Z,2.60
2018-12-11T13:02:21.583Z,2.60
2018-12-11T13:05:02.344Z,2.60
2018-12-11T13:07:36.626Z,2.70
2018-12-11T13:10:11.780Z,2.70
2018-12-11T13:12:51.299Z,2.70
2018-12-11T13:15:27.906Z,2.60
2018-12-11T13:18:06.973Z,2.60
2018-12-11T13:20:42.352Z,2.60
2018-12-11T13:23:20.091Z,2.60
2018-12-11T13:28:32.455Z,2.50
2018-12-11T13:31:03.969Z,2.30
2018-12-11T13:33:40.187Z,2.30
2018-12-11T13:36:14.074Z,2.30
2018-12-11T13:38:49.882Z,2.30
2018-12-11T13:41:30.103Z,2.30
2018-12-11T13:44:04.746Z,2.30
2018-12-11T13:46:38.090Z,2.30
2018-12-11T13:49:16.343Z,2.30
2018-12-11T13:54:26.258Z,2.30
2018-12-11T13:57:05.366Z,2.30
2018-12-11T13:59:39.509Z,2.30
2018-12-11T14:02:13.201Z,2.40
2018-12-11T14:04:47.144Z,2.40
2018-12-11T14:07:24.901Z,2.30
2018-12-11T14:10:04.616Z,2.30
2018-12-11T14:12:47.893Z,2.30
2018-12-11T14:15:22.683Z,2.30
2018-12-11T14:20:44.532Z,2.40
2018-12-11T14:23:20.083Z,2.40
2018-12-11T14:26:00.242Z,2.40
2018-12-11T14:28:35.444Z,2.40
2018-12-11T14:31:13.620Z,2.40
2018-12-11T14:33:48.687Z,2.40
2018-12-11T14:36:25.352Z,2.40
2018-12-11T14:39:00.975Z,2.40
2018-12-11T14:41:40.864Z,2.40
2018-12-11T14:44:20.340Z,2.40
2018-12-11T14:46:54.346Z,2.40
2018-12-11T14:49:34.892Z,2.40
2018-12-11T14:52:09.614Z,2.40
2018-12-11T14:54:43.573Z,2.30
2018-12-11T14:57:21.419Z,2.30
2018-12-11T14:59:55.283Z,2.30
2018-12-11T15:02:29.598Z,2.30
2018-12-11T15:07:39.978Z,2.30
2018-12-11T15:10:14.955Z,2.30
2018-12-11T15:12:47.033Z,2.30
2018-12-11T15:15:23.395Z,2.30
2018-12-11T15:17:57.161Z,2.30
2018-12-11T15:20:31.035Z,2.30
2018-12-11T15:23:04.842Z,2.20
2018-12-11T15:25:39.484Z,2.20
2018-12-11T15:30:44.542Z,2.20
2018-12-11T15:35:51.704Z,2.20
2018-12-11T15:38:30.921Z,2.20
2018-12-11T15:41:04.768Z,2.20
2018-12-11T15:43:38.667Z,2.20
2018-12-11T15:46:14.658Z,2.20
2018-12-11T15:48:52.880Z,2.20
2018-12-11T15:51:27.706Z,2.20
2018-12-11T15:54:01.805Z,2.20
2018-12-11T15:56:37.899Z,2.20
2018-12-11T15:59:11.647Z,2.20
2018-12-11T16:01:45.649Z,2.20
2018-12-11T16:04:19.587Z,2.20
2018-12-11T16:06:55.479Z,2.20
2018-12-11T16:09:34.775Z,2.20
2018-12-11T16:12:11.039Z,2.20
2018-12-11T16:14:48.902Z,2.20
2018-12-11T16:17:26.783Z,2.20
2018-12-11T16:20:02.783Z,2.20
2018-12-11T16:22:36.474Z,2.20
2018-12-11T16:25:10.783Z,2.20
2018-12-11T16:27:42.950Z,2.10
2018-12-11T16:30:17.187Z,2.10
2018-12-11T16:32:51.094Z,2.10
2018-12-11T16:35:24.950Z,2.10
2018-12-11T16:38:03.014Z,2.10
2018-12-11T16:40:37.222Z,2.10
2018-12-11T16:48:17.838Z,2.00
2018-12-11T16:50:51.787Z,2.10
2018-12-11T16:53:29.422Z,2.00
2018-12-11T16:56:05.509Z,2.00
2018-12-11T16:58:43.190Z,2.00
2018-12-11T17:01:17.067Z,2.00
2018-12-11T17:03:50.900Z,2.00
2018-12-11T17:06:25.012Z,2.00
2018-12-11T17:08:58.822Z,2.00
2018-12-11T17:11:32.675Z,2.00
2018-12-11T17:14:12.971Z,2.00
2018-12-11T17:16:45.090Z,2.00
2018-12-11T17:19:23.638Z,2.00
2018-12-11T17:21:57.719Z,2.00
2018-12-11T17:24:33.708Z,2.00
2018-12-11T17:27:07.726Z,2.00
2018-12-11T17:29:41.634Z,2.00
2018-12-11T17:32:15.404Z,2.00
2018-12-11T17:34:55.860Z,2.00
2018-12-11T17:37:36.653Z,2.00
2018-12-11T17:40:14.775Z,2.00
2018-12-11T17:42:54.831Z,2.10
2018-12-11T17:45:26.914Z,2.10
2018-12-11T17:48:05.743Z,2.00
2018-12-11T17:50:40.410Z,2.10
2018-12-11T17:55:46.086Z,2.00
2018-12-11T17:58:18.282Z,2.10
2018-12-11T18:00:50.762Z,2.00
2018-12-11T18:03:24.740Z,2.00
2018-12-11T18:08:31.028Z,2.00
2018-12-11T18:11:03.276Z,2.10
2018-12-11T18:13:37.511Z,2.00
2018-12-11T18:16:11.266Z,2.10
2018-12-11T18:18:49.067Z,2.00
2018-12-11T18:21:22.854Z,2.00
2018-12-11T18:26:30.022Z,2.00
2018-12-11T18:29:04.359Z,2.00
2018-12-11T18:31:38.277Z,2.00
2018-12-11T18:34:14.867Z,2.00
2018-12-11T18:36:48.815Z,2.00
2018-12-11T18:39:22.484Z,2.00
2018-12-11T18:42:00.354Z,2.00
2018-12-11T18:44:34.308Z,2.00
2018-12-11T18:47:13.954Z,2.00
2018-12-11T18:49:48.024Z,2.10
2018-12-11T18:54:58.414Z,2.10
2018-12-11T18:57:36.407Z,2.00
2018-12-11T19:00:10.342Z,2.10
2018-12-11T19:02:45.163Z,2.10
2018-12-11T19:05:23.157Z,2.10
2018-12-11T19:07:57.154Z,2.00
2018-12-11T19:10:37.335Z,2.10
2018-12-11T19:13:13.828Z,2.00
2018-12-11T19:15:51.668Z,2.00
2018-12-11T19:18:25.495Z,2.00
2018-12-11T19:21:03.186Z,2.00
2018-12-11T19:28:46.830Z,2.00
2018-12-11T19:31:35.143Z,2.00
2018-12-11T19:39:16.783Z,2.00
2018-12-11T19:41:50.686Z,2.00
2018-12-11T19:44:24.671Z,2.00
2018-12-11T19:47:00.678Z,2.00
2018-12-11T19:52:15.630Z,2.00
2018-12-11T19:54:53.764Z,2.00
2018-12-11T19:57:42.110Z,2.00
2018-12-11T20:00:16.278Z,2.00
2018-12-11T20:02:45.838Z,2.00
2018-12-11T20:08:06.911Z,2.00
2018-12-11T20:10:35.155Z,2.00
2018-12-11T20:13:11.482Z,2.00
2018-12-11T20:15:47.110Z,2.00
2018-12-11T20:18:21.835Z,2.00
2018-12-11T20:20:59.735Z,2.00
2018-12-11T20:26:03.259Z,2.00
2018-12-11T20:31:14.366Z,2.00
2018-12-11T20:38:55.360Z,1.90
2018-12-11T20:41:30.003Z,1.90
2018-12-11T20:44:04.260Z,1.90
2018-12-11T20:46:38.320Z,1.80
2018-12-11T20:49:12.841Z,1.80
2018-12-11T20:51:51.068Z,1.80
2018-12-11T20:54:24.867Z,1.80
2018-12-11T21:02:03.306Z,1.80
2018-12-11T21:04:35.219Z,1.80
2018-12-11T21:07:09.670Z,1.80
2018-12-11T21:09:47.614Z,1.80
2018-12-11T21:12:21.375Z,1.80
2018-12-11T21:17:30.167Z,1.80
2018-12-11T21:20:04.407Z,1.80
2018-12-11T21:22:42.837Z,1.80
2018-12-11T21:25:20.552Z,1.80
2018-12-11T21:27:54.613Z,1.80
2018-12-11T21:33:03.217Z,1.80
2018-12-11T21:35:37.296Z,1.80
2018-12-11T21:38:11.208Z,1.80
2018-12-11T21:40:49.097Z,1.80
2018-12-11T21:43:26.999Z,1.80
2018-12-11T21:46:01.009Z,1.80
2018-12-11T21:48:34.967Z,1.80
2018-12-11T21:51:08.888Z,1.80
2018-12-11T21:53:42.770Z,1.80
2018-12-11T21:56:20.546Z,1.80
2018-12-11T21:58:55.416Z,1.80
2018-12-11T22:01:33.528Z,1.90
2018-12-11T22:04:09.877Z,1.90
2018-12-11T22:06:43.650Z,1.90
2018-12-11T22:09:17.694Z,1.90
2018-12-11T22:11:51.558Z,1.90
2018-12-11T22:14:25.414Z,1.90
2018-12-11T22:16:59.332Z,1.90
2018-12-11T22:19:37.118Z,1.90
2018-12-11T22:22:15.719Z,1.90
2018-12-11T22:24:49.841Z,1.90
2018-12-11T22:27:25.252Z,1.90
2018-12-11T22:30:03.372Z,1.90
2018-12-11T22:35:16.476Z,1.90
2018-12-11T22:37:51.663Z,1.90
2018-12-11T22:40:29.533Z,1.90
2018-12-11T22:43:03.886Z,1.90
2018-12-11T22:45:42.343Z,1.90
2018-12-11T22:48:15.944Z,1.90
2018-12-11T22:50:50.041Z,1.90
2018-12-11T22:53:22.121Z,1.80
2018-12-11T22:55:56.477Z,1.90
2018-12-11T22:58:32.495Z,1.90
2018-12-11T23:01:06.480Z,1.80
2018-12-11T23:06:10.725Z,1.80
2018-12-11T23:08:45.117Z,1.80
2018-12-11T23:11:19.129Z,1.80
2018-12-11T23:16:25.234Z,1.80
2018-12-11T23:19:03.426Z,1.80
2018-12-11T23:24:11.206Z,1.80
2018-12-11T23:26:46.323Z,1.80
2018-12-11T23:29:21.146Z,1.80
2018-12-11T23:31:55.002Z,1.80
2018-12-11T23:34:28.856Z,1.80
2018-12-11T23:37:03.013Z,1.80
2018-12-11T23:39:36.608Z,1.80
2018-12-11T23:42:10.277Z,1.80
2018-12-11T23:44:44.525Z,1.80
2018-12-11T23:47:22.385Z,1.80
2018-12-11T23:49:56.496Z,1.90
2018-12-11T23:52:30.476Z,1.90
2018-12-11T23:55:04.668Z,1.90
2018-12-11T23:57:38.375Z,1.90
